sensor_id;sensor_type;location;lat;lon;timestamp;P1;durP1;ratioP1;P2;durP2;ratioP2
78108;SDS011;67354;48.068;11.612;2023-02-01T00:01:13;3.93;;;2.73;;
78108;SDS011;67354;48.068;11.612;2023-02-01T00:03:39;3.97;;;2.70;;
78108;SDS011;67354;48.068;11.612;2023-02-01T00:06:04;5.07;;;2.90;;
78108;SDS011;67354;48.068;11.612;2023-02-01T00:08:29;5.32;;;3.15;;
78108;SDS011;67354;48.068;11.612;2023-02-01T00:11:13;4.35;;;2.83;;
78108;SDS011;67354;48.068;11.612;2023-02-01T00:13:39;4.43;;;2.50;;
78108;SDS011;67354;48.068;11.612;2023-02-01T00:18:49;5.88;;;2.70;;
78108;SDS011;67354;48.068;11.612;2023-02-01T00:21:15;4.53;;;2.60;;
78108;SDS011;67354;48.068;11.612;2023-02-01T00:23:42;5.10;;;3.10;;
78108;SDS011;67354;48.068;11.612;2023-02-01T00:26:13;3.50;;;2.60;;
78108;SDS011;67354;48.068;11.612;2023-02-01T00:28:40;3.55;;;2.40;;
78108;SDS011;67354;48.068;11.612;2023-02-01T00:31:05;3.15;;;2.40;;
78108;SDS011;67354;48.068;11.612;2023-02-01T00:33:31;4.47;;;2.70;;
78108;SDS011;67354;48.068;11.612;2023-02-01T00:35:57;5.70;;;2.70;;
78108;SDS011;67354;48.068;11.612;2023-02-01T00:38:23;3.50;;;2.70;;
78108;SDS011;67354;48.068;11.612;2023-02-01T00:40:49;4.10;;;2.10;;
78108;SDS011;67354;48.068;11.612;2023-02-01T00:43:15;3.30;;;2.37;;
78108;SDS011;67354;48.068;11.612;2023-02-01T00:45:40;3.47;;;2.53;;
78108;SDS011;67354;48.068;11.612;2023-02-01T00:48:05;4.27;;;2.67;;
78108;SDS011;67354;48.068;11.612;2023-02-01T00:50:31;3.28;;;2.33;;
78108;SDS011;67354;48.068;11.612;2023-02-01T00:52:56;4.57;;;2.58;;
78108;SDS011;67354;48.068;11.612;2023-02-01T00:55:21;3.90;;;2.60;;
78108;SDS011;67354;48.068;11.612;2023-02-01T00:57:47;4.47;;;2.33;;
78108;SDS011;67354;48.068;11.612;2023-02-01T01:00:12;5.30;;;2.60;;
78108;SDS011;67354;48.068;11.612;2023-02-01T01:02:38;5.60;;;2.63;;
78108;SDS011;67354;48.068;11.612;2023-02-01T01:05:03;3.47;;;2.27;;
78108;SDS011;67354;48.068;11.612;2023-02-01T01:07:28;4.97;;;2.55;;
78108;SDS011;67354;48.068;11.612;2023-02-01T01:09:54;4.67;;;2.60;;
78108;SDS011;67354;48.068;11.612;2023-02-01T01:12:20;3.55;;;2.72;;
78108;SDS011;67354;48.068;11.612;2023-02-01T01:14:45;5.20;;;2.97;;
78108;SDS011;67354;48.068;11.612;2023-02-01T01:17:10;6.30;;;2.78;;
78108;SDS011;67354;48.068;11.612;2023-02-01T01:19:36;3.78;;;2.88;;
78108;SDS011;67354;48.068;11.612;2023-02-01T01:22:01;5.20;;;2.70;;
78108;SDS011;67354;48.068;11.612;2023-02-01T01:24:27;4.05;;;2.80;;
78108;SDS011;67354;48.068;11.612;2023-02-01T01:26:52;4.40;;;2.83;;
78108;SDS011;67354;48.068;11.612;2023-02-01T01:29:18;2.85;;;2.03;;
78108;SDS011;67354;48.068;11.612;2023-02-01T01:31:43;5.43;;;2.78;;
78108;SDS011;67354;48.068;11.612;2023-02-01T01:34:08;5.82;;;2.75;;
78108;SDS011;67354;48.068;11.612;2023-02-01T01:36:34;5.73;;;3.90;;
78108;SDS011;67354;48.068;11.612;2023-02-01T01:38:59;4.80;;;3.00;;
78108;SDS011;67354;48.068;11.612;2023-02-01T01:41:26;4.93;;;3.27;;
78108;SDS011;67354;48.068;11.612;2023-02-01T01:43:56;5.78;;;3.60;;
78108;SDS011;67354;48.068;11.612;2023-02-01T01:46:25;5.43;;;3.80;;
78108;SDS011;67354;48.068;11.612;2023-02-01T01:48:54;6.95;;;3.90;;
78108;SDS011;67354;48.068;11.612;2023-02-01T01:51:21;6.32;;;4.32;;
78108;SDS011;67354;48.068;11.612;2023-02-01T01:53:50;5.05;;;3.90;;
78108;SDS011;67354;48.068;11.612;2023-02-01T01:56:21;6.93;;;3.72;;
78108;SDS011;67354;48.068;11.612;2023-02-01T01:58:47;6.78;;;4.22;;
78108;SDS011;67354;48.068;11.612;2023-02-01T02:01:12;5.82;;;3.92;;
78108;SDS011;67354;48.068;11.612;2023-02-01T02:03:39;7.57;;;3.87;;
78108;SDS011;67354;48.068;11.612;2023-02-01T02:06:10;7.47;;;4.22;;
78108;SDS011;67354;48.068;11.612;2023-02-01T02:08:39;6.82;;;3.72;;
78108;SDS011;67354;48.068;11.612;2023-02-01T02:11:04;7.00;;;4.03;;
78108;SDS011;67354;48.068;11.612;2023-02-01T02:13:38;8.13;;;4.10;;
78108;SDS011;67354;48.068;11.612;2023-02-01T02:30:01;6.28;;;4.10;;
78108;SDS011;67354;48.068;11.612;2023-02-01T02:35:49;4.47;;;3.13;;
78108;SDS011;67354;48.068;11.612;2023-02-01T02:41:09;5.50;;;3.72;;
78108;SDS011;67354;48.068;11.612;2023-02-01T02:44:00;4.40;;;3.47;;
78108;SDS011;67354;48.068;11.612;2023-02-01T02:46:49;5.18;;;3.90;;
78108;SDS011;67354;48.068;11.612;2023-02-01T02:49:42;5.50;;;3.65;;
78108;SDS011;67354;48.068;11.612;2023-02-01T02:52:34;5.53;;;3.67;;
78108;SDS011;67354;48.068;11.612;2023-02-01T02:55:21;6.65;;;3.63;;
78108;SDS011;67354;48.068;11.612;2023-02-01T02:57:46;6.38;;;3.50;;
78108;SDS011;67354;48.068;11.612;2023-02-01T03:00:31;6.32;;;3.50;;
78108;SDS011;67354;48.068;11.612;2023-02-01T03:03:16;6.15;;;3.70;;
78108;SDS011;67354;48.068;11.612;2023-02-01T03:06:00;4.25;;;3.25;;
78108;SDS011;67354;48.068;11.612;2023-02-01T03:08:26;6.22;;;3.47;;
78108;SDS011;67354;48.068;11.612;2023-02-01T03:11:08;5.53;;;3.20;;
78108;SDS011;67354;48.068;11.612;2023-02-01T03:16:08;5.10;;;3.42;;
78108;SDS011;67354;48.068;11.612;2023-02-01T03:18:48;6.10;;;3.30;;
78108;SDS011;67354;48.068;11.612;2023-02-01T03:25:04;4.65;;;3.25;;
78108;SDS011;67354;48.068;11.612;2023-02-01T03:27:01;4.65;;;3.33;;
78108;SDS011;67354;48.068;11.612;2023-02-01T03:29:32;5.63;;;3.42;;
78108;SDS011;67354;48.068;11.612;2023-02-01T03:32:02;6.32;;;3.58;;
78108;SDS011;67354;48.068;11.612;2023-02-01T03:34:27;6.32;;;3.60;;
78108;SDS011;67354;48.068;11.612;2023-02-01T03:37:12;4.68;;;3.53;;
78108;SDS011;67354;48.068;11.612;2023-02-01T03:39:45;5.70;;;3.55;;
78108;SDS011;67354;48.068;11.612;2023-02-01T03:42:17;7.40;;;3.75;;
78108;SDS011;67354;48.068;11.612;2023-02-01T03:45:27;5.05;;;3.60;;
78108;SDS011;67354;48.068;11.612;2023-02-01T03:47:39;6.00;;;3.40;;
78108;SDS011;67354;48.068;11.612;2023-02-01T03:50:08;6.18;;;3.40;;
78108;SDS011;67354;48.068;11.612;2023-02-01T03:52:45;6.03;;;3.25;;
78108;SDS011;67354;48.068;11.612;2023-02-01T03:55:15;5.93;;;3.60;;
78108;SDS011;67354;48.068;11.612;2023-02-01T03:57:45;4.72;;;3.22;;
78108;SDS011;67354;48.068;11.612;2023-02-01T04:00:16;5.07;;;3.60;;
78108;SDS011;67354;48.068;11.612;2023-02-01T04:02:43;4.43;;;3.38;;
78108;SDS011;67354;48.068;11.612;2023-02-01T04:05:09;4.55;;;2.88;;
78108;SDS011;67354;48.068;11.612;2023-02-01T04:07:34;4.07;;;3.13;;
78108;SDS011;67354;48.068;11.612;2023-02-01T04:10:00;5.07;;;3.17;;
78108;SDS011;67354;48.068;11.612;2023-02-01T04:12:25;4.63;;;3.40;;
78108;SDS011;67354;48.068;11.612;2023-02-01T04:14:50;4.10;;;2.77;;
78108;SDS011;67354;48.068;11.612;2023-02-01T04:17:16;3.85;;;2.92;;
78108;SDS011;67354;48.068;11.612;2023-02-01T04:19:41;4.87;;;3.07;;
78108;SDS011;67354;48.068;11.612;2023-02-01T04:22:06;7.45;;;3.25;;
78108;SDS011;67354;48.068;11.612;2023-02-01T04:24:32;4.30;;;3.10;;
78108;SDS011;67354;48.068;11.612;2023-02-01T04:26:57;4.13;;;3.13;;
78108;SDS011;67354;48.068;11.612;2023-02-01T04:29:22;5.87;;;3.53;;
78108;SDS011;67354;48.068;11.612;2023-02-01T04:31:48;5.33;;;2.93;;
78108;SDS011;67354;48.068;11.612;2023-02-01T04:34:14;4.80;;;3.28;;
78108;SDS011;67354;48.068;11.612;2023-02-01T04:36:40;4.75;;;3.05;;
78108;SDS011;67354;48.068;11.612;2023-02-01T04:39:05;6.40;;;3.63;;
78108;SDS011;67354;48.068;11.612;2023-02-01T04:41:30;4.78;;;3.28;;
78108;SDS011;67354;48.068;11.612;2023-02-01T04:43:56;6.63;;;3.60;;
78108;SDS011;67354;48.068;11.612;2023-02-01T04:46:21;4.30;;;2.93;;
78108;SDS011;67354;48.068;11.612;2023-02-01T04:48:46;6.90;;;3.90;;
78108;SDS011;67354;48.068;11.612;2023-02-01T04:51:12;5.77;;;3.57;;
78108;SDS011;67354;48.068;11.612;2023-02-01T04:53:37;3.83;;;2.70;;
78108;SDS011;67354;48.068;11.612;2023-02-01T04:56:03;5.18;;;3.53;;
78108;SDS011;67354;48.068;11.612;2023-02-01T04:58:28;5.38;;;3.30;;
78108;SDS011;67354;48.068;11.612;2023-02-01T05:00:54;6.03;;;3.43;;
78108;SDS011;67354;48.068;11.612;2023-02-01T05:03:19;5.03;;;3.50;;
78108;SDS011;67354;48.068;11.612;2023-02-01T05:05:46;5.97;;;3.88;;
78108;SDS011;67354;48.068;11.612;2023-02-01T05:08:12;5.55;;;3.85;;
78108;SDS011;67354;48.068;11.612;2023-02-01T05:10:38;7.47;;;3.37;;
78108;SDS011;67354;48.068;11.612;2023-02-01T05:13:03;4.80;;;3.60;;
78108;SDS011;67354;48.068;11.612;2023-02-01T05:15:47;5.28;;;3.97;;
78108;SDS011;67354;48.068;11.612;2023-02-01T05:18:12;6.27;;;3.70;;
78108;SDS011;67354;48.068;11.612;2023-02-01T05:20:38;5.20;;;3.67;;
78108;SDS011;67354;48.068;11.612;2023-02-01T05:23:03;5.78;;;3.63;;
78108;SDS011;67354;48.068;11.612;2023-02-01T05:25:29;6.30;;;4.00;;
78108;SDS011;67354;48.068;11.612;2023-02-01T05:27:54;5.13;;;3.22;;
78108;SDS011;67354;48.068;11.612;2023-02-01T05:30:19;4.68;;;3.35;;
78108;SDS011;67354;48.068;11.612;2023-02-01T05:32:45;6.57;;;4.20;;
78108;SDS011;67354;48.068;11.612;2023-02-01T05:35:10;6.07;;;4.00;;
78108;SDS011;67354;48.068;11.612;2023-02-01T05:37:35;5.83;;;3.40;;
78108;SDS011;67354;48.068;11.612;2023-02-01T05:40:01;4.72;;;3.28;;
78108;SDS011;67354;48.068;11.612;2023-02-01T05:42:26;6.83;;;3.77;;
78108;SDS011;67354;48.068;11.612;2023-02-01T05:44:51;5.30;;;3.93;;
78108;SDS011;67354;48.068;11.612;2023-02-01T05:47:17;7.60;;;4.10;;
78108;SDS011;67354;48.068;11.612;2023-02-01T05:49:42;5.40;;;3.83;;
78108;SDS011;67354;48.068;11.612;2023-02-01T05:52:07;5.50;;;3.53;;
78108;SDS011;67354;48.068;11.612;2023-02-01T05:54:33;6.32;;;3.67;;
78108;SDS011;67354;48.068;11.612;2023-02-01T05:56:58;6.85;;;4.10;;
78108;SDS011;67354;48.068;11.612;2023-02-01T05:59:24;6.57;;;3.87;;
78108;SDS011;67354;48.068;11.612;2023-02-01T06:01:49;4.82;;;3.60;;
78108;SDS011;67354;48.068;11.612;2023-02-01T06:04:14;4.32;;;3.28;;
78108;SDS011;67354;48.068;11.612;2023-02-01T06:06:40;4.07;;;3.03;;
78108;SDS011;67354;48.068;11.612;2023-02-01T06:09:05;4.60;;;3.08;;
78108;SDS011;67354;48.068;11.612;2023-02-01T06:11:30;6.20;;;3.40;;
78108;SDS011;67354;48.068;11.612;2023-02-01T06:13:56;4.35;;;3.38;;
78108;SDS011;67354;48.068;11.612;2023-02-01T06:16:21;5.37;;;3.63;;
78108;SDS011;67354;48.068;11.612;2023-02-01T06:18:47;5.88;;;3.70;;
78108;SDS011;67354;48.068;11.612;2023-02-01T06:21:14;6.78;;;3.70;;
78108;SDS011;67354;48.068;11.612;2023-02-01T06:23:48;6.97;;;4.25;;
78108;SDS011;67354;48.068;11.612;2023-02-01T06:26:14;5.47;;;3.70;;
78108;SDS011;67354;48.068;11.612;2023-02-01T06:28:39;4.40;;;3.40;;
78108;SDS011;67354;48.068;11.612;2023-02-01T06:31:05;5.82;;;4.03;;
78108;SDS011;67354;48.068;11.612;2023-02-01T06:33:32;7.28;;;4.25;;
78108;SDS011;67354;48.068;11.612;2023-02-01T06:35:59;5.72;;;4.10;;
78108;SDS011;67354;48.068;11.612;2023-02-01T06:38:25;6.70;;;3.85;;
78108;SDS011;67354;48.068;11.612;2023-02-01T06:40:52;6.38;;;3.83;;
78108;SDS011;67354;48.068;11.612;2023-02-01T06:43:18;5.68;;;4.00;;
78108;SDS011;67354;48.068;11.612;2023-02-01T06:45:43;5.53;;;3.57;;
78108;SDS011;67354;48.068;11.612;2023-02-01T06:48:08;4.90;;;3.63;;
78108;SDS011;67354;48.068;11.612;2023-02-01T06:50:34;5.30;;;3.55;;
78108;SDS011;67354;48.068;11.612;2023-02-01T06:53:00;5.28;;;3.50;;
78108;SDS011;67354;48.068;11.612;2023-02-01T06:55:25;6.32;;;3.97;;
78108;SDS011;67354;48.068;11.612;2023-02-01T06:57:54;5.03;;;3.70;;
78108;SDS011;67354;48.068;11.612;2023-02-01T07:00:20;6.72;;;3.58;;
78108;SDS011;67354;48.068;11.612;2023-02-01T07:02:46;5.40;;;3.70;;
78108;SDS011;67354;48.068;11.612;2023-02-01T07:05:12;5.47;;;3.83;;
78108;SDS011;67354;48.068;11.612;2023-02-01T07:07:37;4.82;;;3.40;;
78108;SDS011;67354;48.068;11.612;2023-02-01T07:10:02;3.87;;;2.67;;
78108;SDS011;67354;48.068;11.612;2023-02-01T07:12:28;6.78;;;3.95;;
78108;SDS011;67354;48.068;11.612;2023-02-01T07:14:53;5.07;;;3.27;;
78108;SDS011;67354;48.068;11.612;2023-02-01T07:17:19;5.00;;;3.63;;
78108;SDS011;67354;48.068;11.612;2023-02-01T07:19:44;5.27;;;3.50;;
78108;SDS011;67354;48.068;11.612;2023-02-01T07:22:09;5.40;;;3.67;;
78108;SDS011;67354;48.068;11.612;2023-02-01T07:24:35;6.20;;;3.23;;
78108;SDS011;67354;48.068;11.612;2023-02-01T07:27:00;5.97;;;3.75;;
78108;SDS011;67354;48.068;11.612;2023-02-01T07:29:25;4.90;;;3.37;;
78108;SDS011;67354;48.068;11.612;2023-02-01T07:31:51;4.10;;;2.53;;
78108;SDS011;67354;48.068;11.612;2023-02-01T07:34:16;5.05;;;3.13;;
78108;SDS011;67354;48.068;11.612;2023-02-01T07:36:41;5.50;;;3.10;;
78108;SDS011;67354;48.068;11.612;2023-02-01T07:39:07;5.00;;;3.28;;
78108;SDS011;67354;48.068;11.612;2023-02-01T07:41:32;5.82;;;3.65;;
78108;SDS011;67354;48.068;11.612;2023-02-01T07:43:58;3.90;;;3.10;;
78108;SDS011;67354;48.068;11.612;2023-02-01T07:46:23;5.10;;;2.90;;
78108;SDS011;67354;48.068;11.612;2023-02-01T07:48:49;5.40;;;3.38;;
78108;SDS011;67354;48.068;11.612;2023-02-01T07:51:15;4.72;;;3.03;;
78108;SDS011;67354;48.068;11.612;2023-02-01T07:53:41;3.58;;;2.13;;
78108;SDS011;67354;48.068;11.612;2023-02-01T07:56:13;4.60;;;2.58;;
78108;SDS011;67354;48.068;11.612;2023-02-01T07:58:40;5.97;;;2.70;;
78108;SDS011;67354;48.068;11.612;2023-02-01T08:01:10;5.22;;;2.40;;
78108;SDS011;67354;48.068;11.612;2023-02-01T08:03:44;3.28;;;2.25;;
78108;SDS011;67354;48.068;11.612;2023-02-01T08:06:10;3.20;;;2.47;;
78108;SDS011;67354;48.068;11.612;2023-02-01T08:08:35;3.10;;;2.38;;
78108;SDS011;67354;48.068;11.612;2023-02-01T08:11:01;4.23;;;2.70;;
78108;SDS011;67354;48.068;11.612;2023-02-01T08:13:28;3.83;;;2.50;;
78108;SDS011;67354;48.068;11.612;2023-02-01T08:16:00;2.75;;;2.15;;
78108;SDS011;67354;48.068;11.612;2023-02-01T08:18:27;3.22;;;2.17;;
78108;SDS011;67354;48.068;11.612;2023-02-01T08:20:52;2.97;;;2.03;;
78108;SDS011;67354;48.068;11.612;2023-02-01T08:23:18;4.10;;;2.22;;
78108;SDS011;67354;48.068;11.612;2023-02-01T08:25:44;3.80;;;2.65;;
78108;SDS011;67354;48.068;11.612;2023-02-01T08:28:09;3.47;;;2.25;;
78108;SDS011;67354;48.068;11.612;2023-02-01T08:30:38;3.95;;;2.53;;
78108;SDS011;67354;48.068;11.612;2023-02-01T08:33:07;4.00;;;2.67;;
78108;SDS011;67354;48.068;11.612;2023-02-01T08:35:37;4.03;;;2.20;;
78108;SDS011;67354;48.068;11.612;2023-02-01T08:38:03;3.83;;;2.53;;
78108;SDS011;67354;48.068;11.612;2023-02-01T08:40:29;3.38;;;2.22;;
78108;SDS011;67354;48.068;11.612;2023-02-01T08:42:55;4.95;;;2.35;;
78108;SDS011;67354;48.068;11.612;2023-02-01T08:45:22;5.05;;;2.38;;
78108;SDS011;67354;48.068;11.612;2023-02-01T08:47:53;4.05;;;2.40;;
78108;SDS011;67354;48.068;11.612;2023-02-01T08:50:19;2.22;;;1.85;;
78108;SDS011;67354;48.068;11.612;2023-02-01T08:52:45;3.17;;;2.10;;
78108;SDS011;67354;48.068;11.612;2023-02-01T08:55:11;3.20;;;2.25;;
78108;SDS011;67354;48.068;11.612;2023-02-01T08:57:36;3.10;;;2.20;;
78108;SDS011;67354;48.068;11.612;2023-02-01T09:00:03;3.30;;;2.10;;
